createdAt,value
2019-05-05T00:02:30.351Z,6.06
2019-05-05T00:07:39.479Z,7.05
2019-05-05T00:12:48.528Z,5.68
2019-05-05T00:17:57.695Z,5.59
2019-05-05T00:23:06.750Z,4.86
2019-05-05T00:28:15.877Z,4.33
2019-05-05T00:33:25.008Z,6.11
2019-05-05T00:38:35.178Z,5.31
2019-05-05T00:43:42.630Z,4.16
2019-05-05T00:48:54.918Z,5.91
2019-05-05T00:54:01.175Z,5.98
2019-05-05T00:59:10.366Z,4.51
2019-05-05T01:04:19.430Z,6.13
2019-05-05T01:09:28.564Z,5.30
2019-05-05T01:14:37.613Z,4.81
2019-05-05T01:19:59.995Z,6.85
2019-05-05T01:24:55.557Z,6.01
2019-05-05T01:30:04.805Z,8.47
2019-05-05T01:35:14.336Z,5.23
2019-05-05T01:40:21.153Z,5.71
2019-05-05T01:45:30.200Z,4.97
2019-05-05T01:50:39.328Z,4.40
2019-05-05T01:55:48.374Z,4.08
2019-05-05T02:00:57.672Z,4.68
2019-05-05T02:06:06.712Z,5.60
2019-05-05T02:11:15.812Z,5.17
2019-05-05T02:16:25.458Z,4.71
2019-05-05T02:21:35.253Z,5.15
2019-05-05T02:26:42.130Z,4.25
2019-05-05T02:31:51.264Z,5.32
2019-05-05T02:37:00.329Z,4.27
2019-05-05T02:42:09.446Z,6.36
2019-05-05T02:47:18.489Z,3.95
2019-05-05T02:52:27.620Z,4.46
2019-05-05T02:57:36.661Z,6.66
2019-05-05T03:02:46.778Z,4.55
2019-05-05T03:07:45.791Z,6.17
2019-05-05T03:12:54.928Z,4.29
2019-05-05T03:18:04.223Z,3.56
2019-05-05T03:23:13.644Z,3.72
2019-05-05T03:28:21.680Z,5.23
2019-05-05T03:33:30.903Z,3.82
2019-05-05T03:38:40.062Z,4.72
2019-05-05T03:43:49.175Z,4.29
2019-05-05T03:48:58.823Z,7.21
2019-05-05T03:54:07.994Z,4.99
2019-05-05T03:59:17.068Z,4.13
2019-05-05T04:04:26.202Z,5.38
2019-05-05T04:09:35.257Z,8.15
2019-05-05T04:14:44.510Z,6.01
2019-05-05T04:19:54.229Z,5.91
2019-05-05T04:25:04.486Z,4.43
2019-05-05T04:30:10.881Z,5.58
2019-05-05T04:35:20.058Z,5.11
2019-05-05T04:40:29.090Z,5.54
2019-05-05T04:45:38.221Z,5.07
2019-05-05T04:50:47.530Z,7.28
2019-05-05T04:55:56.771Z,9.35
2019-05-05T05:01:05.795Z,5.41
2019-05-05T05:06:14.992Z,4.01
2019-05-05T05:11:24.635Z,3.75
2019-05-05T05:16:32.651Z,4.32
2019-05-05T05:21:43.501Z,7.58
2019-05-05T05:26:50.370Z,4.95
2019-05-05T05:31:59.419Z,4.46
2019-05-05T05:37:08.603Z,6.05
2019-05-05T05:42:17.664Z,6.10
2019-05-05T05:47:26.795Z,6.86
2019-05-05T05:52:35.830Z,4.41
2019-05-05T05:57:44.968Z,3.79
2019-05-05T06:02:54.548Z,5.32
2019-05-05T06:08:04.534Z,4.70
2019-05-05T06:13:11.389Z,6.67
2019-05-05T06:18:20.515Z,5.12
2019-05-05T06:23:29.554Z,7.59
2019-05-05T06:28:38.669Z,6.68
2019-05-05T06:33:47.713Z,6.19
2019-05-05T06:38:56.833Z,5.57
2019-05-05T06:44:05.863Z,5.22
2019-05-05T06:49:14.970Z,8.57
2019-05-05T06:54:24.207Z,7.06
2019-05-05T06:59:34.997Z,10.23
2019-05-05T07:04:41.698Z,6.10
2019-05-05T07:09:50.818Z,7.13
2019-05-05T07:14:59.857Z,7.87
2019-05-05T07:20:08.981Z,4.20
2019-05-05T07:25:18.038Z,8.25
2019-05-05T07:30:27.144Z,6.02
2019-05-05T07:35:36.292Z,7.53
2019-05-05T07:40:45.471Z,5.38
2019-05-05T07:45:54.521Z,5.12
2019-05-05T07:51:05.313Z,7.51
2019-05-05T07:56:14.395Z,5.82
2019-05-05T08:01:21.142Z,5.70
2019-05-05T08:06:30.204Z,8.69
2019-05-05T08:11:39.374Z,6.38
2019-05-05T08:16:48.421Z,8.48
2019-05-05T08:21:57.547Z,7.28
2019-05-05T08:27:06.673Z,4.46
2019-05-05T08:32:15.779Z,9.23
2019-05-05T08:37:24.831Z,11.41
2019-05-05T08:42:34.009Z,8.25
2019-05-05T08:47:43.635Z,9.81
2019-05-05T08:52:53.617Z,8.80
2019-05-05T08:58:00.494Z,6.67
2019-05-05T09:03:09.918Z,8.70
2019-05-05T09:08:18.970Z,8.24
2019-05-05T09:13:28.096Z,7.60
2019-05-05T09:18:37.150Z,6.48
2019-05-05T09:23:58.985Z,7.46
2019-05-05T09:28:54.880Z,7.84
2019-05-05T09:34:04.178Z,8.63
2019-05-05T09:39:13.869Z,10.92
2019-05-05T09:44:21.723Z,5.83
2019-05-05T09:49:30.774Z,9.56
2019-05-05T09:54:39.854Z,7.34
2019-05-05T09:59:56.711Z,8.58
2019-05-05T10:04:56.327Z,8.04
2019-05-05T10:09:54.393Z,7.23
2019-05-05T10:15:07.214Z,7.22
2019-05-05T10:20:14.387Z,7.12
2019-05-05T10:25:20.792Z,5.70
2019-05-05T10:30:29.966Z,7.86
2019-05-05T10:35:39.259Z,7.77
2019-05-05T10:40:53.729Z,7.85
2019-05-05T10:45:50.542Z,5.74
2019-05-05T10:50:59.589Z,6.45
2019-05-05T10:56:08.706Z,9.36
2019-05-05T11:01:17.741Z,3.16
2019-05-05T11:06:26.909Z,4.02
2019-05-05T11:11:36.026Z,7.21
2019-05-05T11:16:45.158Z,5.08
2019-05-05T11:21:54.201Z,6.33
2019-05-05T11:27:04.451Z,7.13
2019-05-05T11:32:15.206Z,5.68
2019-05-05T11:37:21.618Z,6.55
2019-05-05T11:42:30.659Z,9.21
2019-05-05T11:47:39.792Z,4.76
2019-05-05T11:52:48.857Z,3.71
2019-05-05T11:57:57.982Z,9.68
2019-05-05T12:03:07.073Z,7.42
2019-05-05T12:08:16.226Z,8.26
2019-05-05T12:13:25.274Z,9.69
2019-05-05T12:18:34.613Z,8.42
2019-05-05T12:23:44.485Z,6.71
2019-05-05T12:28:54.426Z,6.85
2019-05-05T12:34:00.894Z,9.74
2019-05-05T12:39:10.285Z,5.64
2019-05-05T12:44:19.402Z,5.75
2019-05-05T12:49:28.563Z,4.06
2019-05-05T12:54:37.634Z,7.14
2019-05-05T12:59:47.066Z,7.99
2019-05-05T13:04:56.118Z,4.47
2019-05-05T13:10:05.284Z,6.39
2019-05-05T13:15:14.443Z,4.94
2019-05-05T13:20:24.678Z,8.34
2019-05-05T13:25:33.616Z,6.05
2019-05-05T13:30:40.738Z,8.03
2019-05-05T13:35:49.947Z,7.29
2019-05-05T13:40:59.940Z,9.00
2019-05-05T13:46:14.024Z,6.57
2019-05-05T13:51:12.087Z,10.43
2019-05-05T13:56:21.119Z,8.79
2019-05-05T14:01:30.214Z,8.35
2019-05-05T14:06:39.325Z,12.20
2019-05-05T14:11:48.371Z,7.42
2019-05-05T14:16:57.424Z,10.61
2019-05-05T14:22:06.556Z,9.47
2019-05-05T14:27:15.737Z,8.73
2019-05-05T14:32:24.908Z,9.93
2019-05-05T14:37:34.131Z,9.37
2019-05-05T14:42:43.518Z,9.83
2019-05-05T14:47:53.526Z,9.57
2019-05-05T14:53:00.448Z,4.56
2019-05-05T14:58:09.510Z,5.77
2019-05-05T15:03:18.639Z,5.99
2019-05-05T15:08:27.813Z,6.33
2019-05-05T15:13:37.022Z,5.39
2019-05-05T15:18:46.071Z,4.04
2019-05-05T15:23:55.211Z,3.28
2019-05-05T15:29:04.443Z,4.93
2019-05-05T15:34:13.579Z,7.75
2019-05-05T15:39:24.411Z,6.69
2019-05-05T15:44:31.302Z,6.38
2019-05-05T15:49:40.365Z,8.44
2019-05-05T15:54:50.710Z,9.69
2019-05-05T15:59:49.703Z,8.46
2019-05-05T16:04:58.884Z,10.06
2019-05-05T16:10:08.095Z,6.91
2019-05-05T16:15:17.194Z,6.45
2019-05-05T16:20:26.244Z,11.40
2019-05-05T16:25:35.638Z,11.15
2019-05-05T16:30:44.787Z,8.84
2019-05-05T16:35:54.021Z,9.55
2019-05-05T16:41:03.254Z,6.22
2019-05-05T16:46:16.696Z,6.86
2019-05-05T16:51:21.076Z,4.67
2019-05-05T16:56:30.188Z,7.22
2019-05-05T17:01:39.238Z,5.45
2019-05-05T17:06:48.400Z,8.35
2019-05-05T17:11:57.458Z,5.19
2019-05-05T17:17:06.813Z,7.35
2019-05-05T17:22:15.855Z,7.01
2019-05-05T17:27:25.269Z,7.52
2019-05-05T17:32:34.544Z,5.21
2019-05-05T17:37:44.262Z,5.00
2019-05-05T17:42:53.505Z,6.44
2019-05-05T17:48:00.604Z,8.24
2019-05-05T17:53:09.651Z,8.37
2019-05-05T17:58:19.574Z,9.02
2019-05-05T18:03:28.607Z,4.89
2019-05-05T18:08:37.815Z,9.51
2019-05-05T18:13:46.859Z,8.86
2019-05-05T18:18:55.985Z,7.99
2019-05-05T18:24:05.052Z,12.37
2019-05-05T18:29:14.554Z,7.28
2019-05-05T18:34:23.547Z,5.19
2019-05-05T18:39:31.488Z,4.39
2019-05-05T18:44:40.561Z,4.45
2019-05-05T18:49:49.792Z,7.01
2019-05-05T18:54:58.910Z,5.76
2019-05-05T19:00:08.035Z,9.05
2019-05-05T19:05:17.237Z,8.47
2019-05-05T19:10:26.411Z,12.96
2019-05-05T19:15:35.490Z,10.63
2019-05-05T19:20:44.729Z,12.28
2019-05-05T19:25:55.815Z,10.24
2019-05-05T19:31:04.219Z,12.31
2019-05-05T19:36:10.975Z,11.97
2019-05-05T19:41:20.123Z,12.94
2019-05-05T19:46:29.170Z,11.82
2019-05-05T19:51:38.398Z,12.04
2019-05-05T19:56:47.469Z,12.34
2019-05-05T20:01:56.635Z,9.41
2019-05-05T20:07:05.671Z,7.48
2019-05-05T20:12:14.858Z,9.32
2019-05-05T20:17:23.879Z,7.65
2019-05-05T20:22:34.849Z,9.94
2019-05-05T20:27:41.653Z,9.65
2019-05-05T20:32:50.995Z,10.60
2019-05-05T20:38:00.218Z,9.21
2019-05-05T20:43:09.340Z,12.17
2019-05-05T20:48:18.379Z,12.24
2019-05-05T20:53:27.495Z,14.24
2019-05-05T20:58:36.560Z,11.70
2019-05-05T21:03:45.674Z,15.64
2019-05-05T21:08:54.739Z,11.26
2019-05-05T21:14:04.084Z,8.91
2019-05-05T21:19:14.075Z,8.74
2019-05-05T21:24:21.534Z,9.75
2019-05-05T21:29:39.577Z,10.78
2019-05-05T21:34:39.204Z,12.66
2019-05-05T21:39:48.239Z,9.58
2019-05-05T21:44:57.390Z,11.61
2019-05-05T21:50:06.451Z,11.00
2019-05-05T21:55:15.622Z,11.92
2019-05-05T22:00:24.707Z,9.39
2019-05-05T22:05:33.825Z,10.01
2019-05-05T22:10:42.863Z,9.00
2019-05-05T22:15:51.978Z,12.09
2019-05-05T22:21:01.090Z,9.47
2019-05-05T22:26:10.255Z,13.41
2019-05-05T22:31:19.286Z,6.84
2019-05-05T22:36:28.432Z,9.89
2019-05-05T22:41:37.466Z,9.18
2019-05-05T22:46:46.590Z,9.20
2019-05-05T22:51:55.635Z,8.48
2019-05-05T22:57:04.791Z,8.97
2019-05-05T23:02:14.556Z,5.56
2019-05-05T23:07:24.090Z,8.37
2019-05-05T23:12:31.139Z,7.26
2019-05-05T23:17:40.259Z,7.82
2019-05-05T23:22:49.338Z,5.79
2019-05-05T23:27:58.455Z,5.81
2019-05-05T23:33:07.514Z,7.98
2019-05-05T23:38:16.674Z,4.41
2019-05-05T23:43:25.715Z,4.66
2019-05-05T23:48:34.961Z,7.53
2019-05-05T23:53:44.511Z,6.40
2019-05-05T23:58:54.712Z,5.22
